Terminal Aerodrome Forecast
Issued by NWS

Current Version | Previous Version | Graphics & Text | Print | Product List | Glossary On
Versions: 1 2 3 4 5 6 7 8 9 10 11 12 13 14 15 16 17 18 19 20 21 22 23 24
000
FTUS41 KILN 270406 AAA
TAFLUK
TAF AMD
KLUK 270406Z 2704/2724 00000KT 1SM BR SCT250
      TEMPO 2704/2706 1/2SM FG
     FM270700 00000KT 3SM BR SCT040 BKN250
      TEMPO 2707/2710 2SM BR
     FM271300 19004KT P6SM SCT040 BKN250
     FM271600 19010KT P6SM BKN040=

USA.gov is the U.S. government's official web portal to all federal, state and local government web resources and services.